createdAt,value
2019-02-11T00:01:18.278Z,94352.53
2019-02-11T00:03:47.457Z,94364.69
2019-02-11T00:06:16.652Z,94373.34
2019-02-11T00:08:45.886Z,94380.69
2019-02-11T00:11:15.448Z,94388.77
2019-02-11T00:13:44.691Z,94376.59
2019-02-11T00:16:13.898Z,94364.93
2019-02-11T00:18:43.150Z,94380.57
2019-02-11T00:21:12.364Z,94381.98
2019-02-11T00:23:41.606Z,94374.48
2019-02-11T00:26:10.794Z,94362.91
2019-02-11T00:28:39.981Z,94374.23
2019-02-11T00:31:09.248Z,94379.98
2019-02-11T00:33:38.482Z,94379.38
2019-02-11T00:36:07.708Z,94397.83
2019-02-11T00:38:37.261Z,94397.70
2019-02-11T00:43:41.484Z,94383.89
2019-02-11T00:48:45.653Z,94395.92
2019-02-11T00:51:14.891Z,94390.32
2019-02-11T00:53:44.066Z,94413.70
2019-02-11T00:56:13.299Z,94383.31
2019-02-11T00:58:42.478Z,94368.44
2019-02-11T01:01:11.732Z,94379.30
2019-02-11T01:03:40.913Z,94382.94
2019-02-11T01:06:10.091Z,94393.67
2019-02-11T01:08:39.342Z,94367.27
2019-02-11T01:11:08.534Z,94393.75
2019-02-11T01:13:37.787Z,94411.50
2019-02-11T01:16:06.965Z,94398.56
2019-02-11T01:18:36.210Z,94393.88
2019-02-11T01:21:05.389Z,94392.59
2019-02-11T01:23:34.652Z,94401.34
2019-02-11T01:26:03.835Z,94403.20
2019-02-11T01:29:12.452Z,94394.33
2019-02-11T01:31:41.632Z,94385.98
2019-02-11T01:34:10.806Z,94374.89
2019-02-11T01:36:40.091Z,94391.95
2019-02-11T01:39:09.367Z,94397.80
2019-02-11T01:41:38.542Z,94398.97
2019-02-11T01:44:07.715Z,94419.31
2019-02-11T01:46:36.977Z,94420.99
2019-02-11T01:49:06.171Z,94370.17
2019-02-11T01:51:35.801Z,94426.78
2019-02-11T01:54:05.290Z,94431.26
2019-02-11T01:56:34.563Z,94442.91
2019-02-11T01:59:04.087Z,94433.20
2019-02-11T02:01:33.670Z,94440.28
2019-02-11T02:04:02.895Z,94425.23
2019-02-11T02:06:32.083Z,94436.98
2019-02-11T02:09:01.315Z,94433.38
2019-02-11T02:11:30.794Z,94441.16
2019-02-11T02:14:00.019Z,94447.90
2019-02-11T02:16:29.204Z,94450.47
2019-02-11T02:18:58.437Z,94457.55
2019-02-11T02:21:27.607Z,94466.73
2019-02-11T02:23:56.832Z,94465.33
2019-02-11T02:26:26.010Z,94454.52
2019-02-11T02:28:55.246Z,94461.03
2019-02-11T02:31:24.434Z,94457.73
2019-02-11T02:33:53.660Z,94445.33
2019-02-11T02:36:23.177Z,94462.03
2019-02-11T02:38:52.440Z,94467.63
2019-02-11T02:41:21.628Z,94482.09
2019-02-11T02:43:55.658Z,94493.64
2019-02-11T02:46:21.772Z,94490.75
2019-02-11T02:48:51.235Z,94487.03
2019-02-11T02:51:20.475Z,94488.94
2019-02-11T02:53:49.668Z,94495.44
2019-02-11T02:56:19.222Z,94463.77
2019-02-11T02:58:48.419Z,94485.72
2019-02-11T03:01:18.027Z,94490.05
2019-02-11T03:03:47.205Z,94501.03
2019-02-11T03:22:04.027Z,94511.89
2019-02-11T03:24:33.256Z,94519.83
2019-02-11T03:27:02.885Z,94543.28
2019-02-11T03:29:32.130Z,94554.03
2019-02-11T03:32:01.301Z,94550.47
2019-02-11T03:34:30.529Z,94555.38
2019-02-11T03:37:00.152Z,94567.23
2019-02-11T03:39:29.380Z,94559.84
2019-02-11T03:41:58.606Z,94570.82
2019-02-11T03:44:27.782Z,94586.81
2019-02-11T03:46:57.134Z,94583.13
2019-02-11T03:49:26.313Z,94586.50
2019-02-11T03:52:03.211Z,94598.18
2019-02-11T03:54:39.200Z,94596.20
2019-02-11T03:57:08.439Z,94613.19
2019-02-11T03:59:37.616Z,94600.34
2019-02-11T04:02:06.787Z,94593.36
2019-02-11T04:04:36.023Z,94596.09
2019-02-11T04:07:05.203Z,94615.41
2019-02-11T04:09:34.437Z,94621.11
2019-02-11T04:12:03.928Z,94612.61
2019-02-11T04:14:33.134Z,94619.18
2019-02-11T04:17:02.307Z,94620.68
2019-02-11T04:19:31.527Z,94619.90
2019-02-11T04:22:19.780Z,94615.89
2019-02-11T04:24:49.194Z,94615.62
2019-02-11T04:27:18.365Z,94613.01
2019-02-11T04:29:47.590Z,94613.28
2019-02-11T04:32:16.775Z,94607.70
2019-02-11T04:34:46.006Z,94602.21
2019-02-11T04:37:15.230Z,94608.78
2019-02-11T04:39:44.404Z,94612.77
2019-02-11T04:42:13.635Z,94608.44
2019-02-11T04:44:42.801Z,94626.74
2019-02-11T04:47:12.055Z,94627.03
2019-02-11T04:49:41.248Z,94642.37
2019-02-11T04:52:10.500Z,94643.36
2019-02-11T04:54:39.664Z,94652.45
2019-02-11T04:57:08.941Z,94655.11
2019-02-11T04:59:38.126Z,94651.19
2019-02-11T05:02:07.360Z,94671.58
2019-02-11T05:04:36.539Z,94673.16
2019-02-11T05:07:05.754Z,94678.10
2019-02-11T05:09:35.297Z,94680.91
2019-02-11T05:12:04.490Z,94681.39
2019-02-11T05:14:43.242Z,94673.61
2019-02-11T05:17:04.642Z,94686.14
2019-02-11T05:19:34.208Z,94673.77
2019-02-11T05:22:03.403Z,94686.03
2019-02-11T05:24:32.657Z,94691.27
2019-02-11T05:27:01.850Z,94691.11
2019-02-11T05:29:31.096Z,94704.11
2019-02-11T05:32:00.293Z,94702.94
2019-02-11T05:34:29.546Z,94678.19
2019-02-11T05:36:58.765Z,94717.98
2019-02-11T05:39:28.004Z,94721.11
2019-02-11T05:41:57.184Z,94730.09
2019-02-11T05:44:26.368Z,94730.37
2019-02-11T05:46:55.607Z,94727.70
2019-02-11T05:49:25.102Z,94738.51
2019-02-11T05:51:54.329Z,94737.24
2019-02-11T05:54:23.517Z,94744.47
2019-02-11T05:56:52.745Z,94766.15
2019-02-11T05:59:21.920Z,94760.83
2019-02-11T06:01:51.157Z,94771.98
2019-02-11T06:04:20.345Z,94770.63
2019-02-11T06:06:49.580Z,94765.95
2019-02-11T06:09:18.778Z,94765.30
2019-02-11T06:11:47.985Z,94770.08
2019-02-11T06:14:17.481Z,94787.36
2019-02-11T06:16:46.731Z,94795.65
2019-02-11T06:19:16.386Z,94800.67
2019-02-11T06:21:45.553Z,94808.55
2019-02-11T06:24:14.787Z,94807.07
2019-02-11T06:26:43.963Z,94815.70
2019-02-11T06:29:13.188Z,94818.36
2019-02-11T06:31:42.377Z,94831.26
2019-02-11T06:34:11.625Z,94841.44
2019-02-11T06:36:40.852Z,94843.31
2019-02-11T06:39:10.093Z,94849.02
2019-02-11T06:41:39.570Z,94852.72
2019-02-11T06:44:08.810Z,94861.32
2019-02-11T06:46:37.985Z,94855.41
2019-02-11T06:49:07.230Z,94851.98
2019-02-11T06:51:36.408Z,94866.44
2019-02-11T06:54:05.735Z,94872.41
2019-02-11T06:56:34.914Z,94884.20
2019-02-11T06:59:04.149Z,94892.58
2019-02-11T07:01:33.339Z,94898.97
2019-02-11T07:04:02.590Z,94902.07
2019-02-11T07:06:31.766Z,94913.94
2019-02-11T07:09:00.994Z,94928.02
2019-02-11T07:11:30.183Z,94931.30
2019-02-11T07:13:59.436Z,94940.37
2019-02-11T07:16:28.607Z,94945.28
2019-02-11T07:18:57.780Z,94958.67
2019-02-11T07:21:27.354Z,94959.59
2019-02-11T07:23:56.529Z,94958.26
2019-02-11T07:26:25.764Z,94965.39
2019-02-11T07:28:54.934Z,94968.73
2019-02-11T07:31:24.151Z,94984.38
2019-02-11T07:33:53.321Z,94978.81
2019-02-11T07:36:22.551Z,94993.48
2019-02-11T07:38:51.839Z,94993.00
2019-02-11T07:44:20.845Z,94993.19
2019-02-11T07:46:54.786Z,95008.89
2019-02-11T07:49:23.966Z,95016.95
2019-02-11T07:51:53.465Z,95013.87
2019-02-11T07:54:22.638Z,95023.86
2019-02-11T07:56:52.188Z,95021.52
2019-02-11T07:59:21.363Z,95034.08
2019-02-11T08:01:50.589Z,95034.22
2019-02-11T08:04:20.062Z,95032.44
2019-02-11T08:06:49.974Z,95039.67
2019-02-11T08:09:19.151Z,95043.07
2019-02-11T08:11:48.372Z,95058.28
2019-02-11T08:14:17.553Z,95055.69
2019-02-11T08:16:47.102Z,95049.81
2019-02-11T08:19:16.275Z,95063.94
2019-02-11T08:21:45.446Z,95067.30
2019-02-11T08:24:14.676Z,95082.88
2019-02-11T08:26:43.847Z,95092.25
2019-02-11T08:29:13.084Z,95098.95
2019-02-11T08:31:42.269Z,95101.27
2019-02-11T08:34:11.898Z,95110.16
2019-02-11T08:36:41.061Z,95111.42
2019-02-11T08:39:10.805Z,95114.05
2019-02-11T08:41:39.988Z,95125.80
2019-02-11T08:44:09.296Z,95129.59
2019-02-11T08:46:38.457Z,95139.95
2019-02-11T08:49:07.709Z,95145.37
2019-02-11T08:51:36.967Z,95159.16
2019-02-11T08:54:06.220Z,95155.91
2019-02-11T08:56:35.410Z,95165.64
2019-02-11T08:59:04.642Z,95165.86
2019-02-11T09:01:33.822Z,95169.91
2019-02-11T09:04:03.057Z,95183.10
2019-02-11T09:06:32.266Z,95184.52
2019-02-11T09:09:01.722Z,95192.20
2019-02-11T09:11:30.904Z,95196.36
2019-02-11T09:14:00.141Z,95200.59
2019-02-11T09:16:29.409Z,95208.27
2019-02-11T09:19:18.039Z,95209.70
2019-02-11T09:21:47.214Z,95213.67
2019-02-11T09:24:16.383Z,95212.88
2019-02-11T09:26:45.905Z,95223.16
2019-02-11T09:29:15.080Z,95224.66
2019-02-11T09:31:44.306Z,95233.41
2019-02-11T09:34:13.494Z,95229.87
2019-02-11T09:36:42.724Z,95238.75
2019-02-11T09:39:12.327Z,95235.35
2019-02-11T09:41:41.645Z,95237.33
2019-02-11T09:44:10.809Z,95247.27
2019-02-11T09:46:40.160Z,95244.40
2019-02-11T09:49:09.343Z,95246.29
2019-02-11T09:51:42.920Z,95250.80
2019-02-11T09:54:12.133Z,95258.17
2019-02-11T09:56:41.768Z,95254.19
2019-02-11T09:59:10.990Z,95260.72
2019-02-11T10:01:40.265Z,95270.42
2019-02-11T10:04:09.461Z,95272.85
2019-02-11T10:06:38.744Z,95283.45
2019-02-11T10:09:07.956Z,95291.08
2019-02-11T10:11:37.167Z,95289.10
2019-02-11T10:14:06.419Z,95303.97
2019-02-11T10:16:35.624Z,95306.27
2019-02-11T10:19:04.881Z,95309.80
2019-02-11T10:21:34.108Z,95316.05
2019-02-11T10:24:03.726Z,95321.94
2019-02-11T10:26:32.949Z,95319.14
2019-02-11T10:29:02.212Z,95328.61
2019-02-11T10:31:31.802Z,95331.84
2019-02-11T10:34:01.074Z,95334.42
2019-02-11T10:36:30.600Z,95334.95
2019-02-11T10:38:59.962Z,95333.95
2019-02-11T10:41:29.148Z,95342.27
2019-02-11T10:43:58.392Z,95347.40
2019-02-11T10:46:27.903Z,95347.64
2019-02-11T10:48:57.413Z,95351.48
2019-02-11T10:51:26.593Z,95358.87
2019-02-11T10:53:55.817Z,95363.05
2019-02-11T10:56:25.025Z,95354.77
2019-02-11T10:58:54.270Z,95360.34
2019-02-11T11:01:23.942Z,95356.90
2019-02-11T11:03:53.512Z,95359.16
2019-02-11T11:06:22.684Z,95366.71
2019-02-11T11:08:51.972Z,95366.77
2019-02-11T11:11:22.030Z,95366.86
2019-02-11T11:13:51.277Z,95377.53
2019-02-11T11:16:29.197Z,95379.20
2019-02-11T11:18:52.174Z,95377.61
2019-02-11T11:21:22.098Z,95396.48
2019-02-11T11:23:51.360Z,95395.32
2019-02-11T11:26:20.534Z,95405.14
2019-02-11T11:28:50.515Z,95402.36
2019-02-11T11:31:19.699Z,95396.91
2019-02-11T11:33:48.927Z,95413.09
2019-02-11T11:36:18.107Z,95417.50
2019-02-11T11:38:47.711Z,95423.93
2019-02-11T11:41:16.940Z,95424.32
2019-02-11T11:43:46.166Z,95437.57
2019-02-11T11:46:15.448Z,95433.13
2019-02-11T11:48:44.673Z,95439.50
2019-02-11T11:51:13.836Z,95440.91
2019-02-11T11:53:43.066Z,95443.11
2019-02-11T11:56:12.248Z,95442.84
2019-02-11T11:58:41.476Z,95457.06
2019-02-11T12:01:10.715Z,95456.85
2019-02-11T12:03:39.957Z,95462.02
2019-02-11T12:06:09.185Z,95467.55
2019-02-11T12:08:38.412Z,95482.11
2019-02-11T12:11:07.587Z,95472.92
2019-02-11T12:13:36.909Z,95482.27
2019-02-11T12:16:06.096Z,95496.80
2019-02-11T12:18:35.340Z,95494.14
2019-02-11T12:21:04.499Z,95500.15
2019-02-11T12:23:33.682Z,95504.30
2019-02-11T12:26:02.885Z,95507.19
2019-02-11T12:28:32.162Z,95507.95
2019-02-11T12:31:01.709Z,95502.55
2019-02-11T12:33:30.913Z,95511.63
2019-02-11T12:36:00.120Z,95512.66
2019-02-11T12:38:29.310Z,95510.27
2019-02-11T12:40:58.670Z,95519.42
2019-02-11T12:43:27.845Z,95517.31
2019-02-11T12:45:57.073Z,95516.03
2019-02-11T12:48:26.249Z,95533.67
2019-02-11T12:50:55.524Z,95531.62
2019-02-11T12:53:24.726Z,95534.47
2019-02-11T12:55:53.968Z,95540.98
2019-02-11T12:58:23.137Z,95543.03
2019-02-11T13:00:52.319Z,95541.06
2019-02-11T13:03:22.218Z,95554.11
2019-02-11T13:05:51.427Z,95553.78
2019-02-11T13:08:21.215Z,95568.75
2019-02-11T13:10:50.457Z,95567.87
2019-02-11T13:13:19.683Z,95569.70
2019-02-11T13:16:01.592Z,95575.27
2019-02-11T13:18:20.200Z,95574.88
2019-02-11T13:20:50.713Z,95585.02
2019-02-11T13:23:19.950Z,95582.98
2019-02-11T13:25:49.118Z,95587.70
2019-02-11T13:28:18.358Z,95590.51
2019-02-11T13:30:47.963Z,95587.06
2019-02-11T13:33:36.923Z,95599.91
2019-02-11T13:39:14.734Z,95613.05
2019-02-11T13:41:43.942Z,95618.42
2019-02-11T13:44:13.287Z,95610.42
2019-02-11T13:46:42.470Z,95604.97
2019-02-11T13:49:51.290Z,95614.26
2019-02-11T13:55:15.746Z,95622.31
2019-02-11T13:57:44.993Z,95624.41
2019-02-11T14:00:35.983Z,95622.73
2019-02-11T14:03:06.416Z,95640.42
2019-02-11T14:05:36.027Z,95638.15
2019-02-11T14:08:44.802Z,95642.51
2019-02-11T14:11:14.020Z,95654.44
2019-02-11T14:14:00.554Z,95664.61
2019-02-11T14:16:14.302Z,95662.93
2019-02-11T14:18:44.026Z,95674.58
2019-02-11T14:21:13.710Z,95672.19
2019-02-11T14:23:42.908Z,95674.18
2019-02-11T14:26:12.210Z,95680.91
2019-02-11T14:28:41.411Z,95689.48
2019-02-11T14:31:10.742Z,95678.78
2019-02-11T14:33:39.939Z,95693.89
2019-02-11T14:36:09.182Z,95694.65
2019-02-11T14:38:38.417Z,95706.66
2019-02-11T14:41:07.732Z,95706.62
2019-02-11T14:43:36.917Z,95706.82
2019-02-11T14:46:06.151Z,95711.99
2019-02-11T14:48:35.682Z,95712.52
2019-02-11T14:51:05.208Z,95706.94
2019-02-11T14:53:34.669Z,95730.82
2019-02-11T14:56:04.014Z,95728.13
2019-02-11T14:58:33.342Z,95724.81
2019-02-11T15:01:02.786Z,95728.81
2019-02-11T15:03:31.961Z,95742.16
2019-02-11T15:06:01.176Z,95743.64
2019-02-11T15:08:30.426Z,95748.20
2019-02-11T15:10:59.722Z,95757.13
2019-02-11T15:13:29.054Z,95767.74
2019-02-11T15:15:58.253Z,95761.48
2019-02-11T15:18:34.142Z,95775.11
2019-02-11T15:20:58.951Z,95769.47
2019-02-11T15:23:28.255Z,95766.19
2019-02-11T15:25:57.443Z,95778.00
2019-02-11T15:28:26.672Z,95783.25
2019-02-11T15:30:55.863Z,95787.06
2019-02-11T15:33:25.093Z,95787.22
2019-02-11T15:35:54.281Z,95792.91
2019-02-11T15:38:23.544Z,95800.33
2019-02-11T15:40:52.790Z,95795.84
2019-02-11T15:43:21.974Z,95806.67
2019-02-11T15:45:51.225Z,95807.38
2019-02-11T15:48:20.719Z,95808.03
2019-02-11T15:50:49.964Z,95813.59
2019-02-11T15:53:19.137Z,95814.28
2019-02-11T15:55:48.372Z,95821.53
2019-02-11T15:58:17.575Z,95824.37
2019-02-11T16:00:46.792Z,95825.51
2019-02-11T16:03:35.044Z,95830.03
2019-02-11T16:06:10.590Z,95844.03
2019-02-11T16:08:39.385Z,95854.36
2019-02-11T16:11:08.996Z,95857.95
2019-02-11T16:13:38.172Z,95854.19
2019-02-11T16:16:07.401Z,95857.39
2019-02-11T16:18:36.576Z,95864.33
2019-02-11T16:21:05.805Z,95857.46
2019-02-11T16:23:34.991Z,95862.59
2019-02-11T16:26:04.227Z,95872.01
2019-02-11T16:28:33.403Z,95876.10
2019-02-11T16:31:02.640Z,95889.59
2019-02-11T16:33:31.814Z,95894.72
2019-02-11T16:36:01.039Z,95891.56
2019-02-11T16:38:30.982Z,95895.09
2019-02-11T16:41:01.997Z,95905.86
2019-02-11T16:43:32.045Z,95899.14
2019-02-11T16:46:01.234Z,95907.27
2019-02-11T16:48:30.472Z,95906.39
2019-02-11T16:50:59.972Z,95892.46
2019-02-11T16:53:29.200Z,95884.02
2019-02-11T16:55:58.502Z,95901.30
2019-02-11T16:58:28.050Z,95895.80
2019-02-11T17:00:57.434Z,95912.98
2019-02-11T17:03:26.817Z,95918.76
2019-02-11T17:06:16.902Z,95918.05
2019-02-11T17:08:46.972Z,95925.93
2019-02-11T17:11:35.313Z,95937.20
2019-02-11T17:14:04.546Z,95944.47
2019-02-11T17:16:34.044Z,95950.95
2019-02-11T17:19:09.154Z,95958.45
2019-02-11T17:21:34.195Z,95971.24
2019-02-11T17:24:03.433Z,95966.11
2019-02-11T17:26:32.633Z,95962.81
2019-02-11T17:29:01.855Z,95977.69
2019-02-11T17:31:31.023Z,95976.95
2019-02-11T17:34:00.254Z,95976.14
2019-02-11T17:36:29.497Z,95982.16
2019-02-11T17:38:58.862Z,95984.21
2019-02-11T17:41:28.602Z,95987.66
2019-02-11T17:43:57.942Z,95984.98
2019-02-11T17:46:27.580Z,95990.62
2019-02-11T17:48:56.859Z,95988.53
2019-02-11T17:51:26.157Z,96001.17
2019-02-11T17:53:55.967Z,95997.55
2019-02-11T17:59:15.179Z,96013.70
2019-02-11T18:01:44.317Z,96014.06
2019-02-11T18:04:13.559Z,96011.34
2019-02-11T18:06:43.681Z,96012.45
2019-02-11T18:09:12.938Z,96019.12
2019-02-11T18:11:42.467Z,96012.30
2019-02-11T18:14:11.732Z,96010.98
2019-02-11T18:16:40.933Z,96014.68
2019-02-11T18:19:10.168Z,96019.88
2019-02-11T18:21:39.353Z,96022.63
2019-02-11T18:24:08.597Z,96016.62
2019-02-11T18:26:37.772Z,96003.54
2019-02-11T18:29:07.094Z,96021.08
2019-02-11T18:31:36.261Z,96013.39
2019-02-11T18:34:05.492Z,96017.16
2019-02-11T18:36:35.065Z,96032.19
2019-02-11T18:39:44.067Z,96041.74
2019-02-11T18:42:13.306Z,96047.05
2019-02-11T18:44:42.545Z,96047.30
2019-02-11T18:47:11.750Z,96047.82
2019-02-11T18:49:41.004Z,96043.89
2019-02-11T18:52:10.195Z,96053.41
2019-02-11T18:54:40.210Z,96053.05
2019-02-11T18:57:09.391Z,96068.84
2019-02-11T18:59:38.698Z,96071.24
2019-02-11T19:02:07.098Z,96074.81
2019-02-11T19:04:36.339Z,96070.56
2019-02-11T19:07:05.617Z,96071.58
2019-02-11T19:09:34.864Z,96078.93
2019-02-11T19:12:04.046Z,96085.84
2019-02-11T19:14:33.679Z,96092.09
2019-02-11T19:17:02.864Z,96090.98
2019-02-11T19:19:32.424Z,96101.63
2019-02-11T19:22:01.992Z,96097.52
2019-02-11T19:24:31.182Z,96098.90
2019-02-11T19:27:00.804Z,96102.64
2019-02-11T19:29:29.986Z,96111.71
2019-02-11T19:31:59.282Z,96107.92
2019-02-11T19:34:28.546Z,96106.75
2019-02-11T19:36:57.818Z,96125.97
2019-02-11T19:39:27.002Z,96116.05
2019-02-11T19:41:56.296Z,96118.91
2019-02-11T19:44:25.491Z,96120.13
2019-02-11T19:46:54.729Z,96126.90
2019-02-11T19:49:24.285Z,96127.13
2019-02-11T19:51:53.586Z,96132.66
2019-02-11T19:54:22.828Z,96130.80
2019-02-11T19:56:52.074Z,96139.34
2019-02-11T19:59:21.328Z,96132.87
2019-02-11T20:01:50.584Z,96144.30
2019-02-11T20:04:20.088Z,96148.86
2019-02-11T20:06:49.351Z,96159.64
2019-02-11T20:09:18.616Z,96158.15
2019-02-11T20:11:47.839Z,96153.81
2019-02-11T20:14:17.182Z,96159.98
2019-02-11T20:16:47.927Z,96175.41
2019-02-11T20:19:17.340Z,96177.95
2019-02-11T20:21:46.524Z,96193.25
2019-02-11T20:24:15.770Z,96189.16
2019-02-11T20:26:44.973Z,96184.98
2019-02-11T20:29:14.205Z,96185.70
2019-02-11T20:31:43.712Z,96190.01
2019-02-11T20:34:12.951Z,96198.97
2019-02-11T20:36:42.129Z,96202.81
2019-02-11T20:39:11.366Z,96213.28
2019-02-11T20:41:40.609Z,96204.41
2019-02-11T20:44:10.255Z,96209.81
2019-02-11T20:46:39.437Z,96211.44
2019-02-11T20:49:08.615Z,96196.97
2019-02-11T20:51:37.867Z,96198.50
2019-02-11T20:54:07.065Z,96198.72
2019-02-11T20:56:36.338Z,96207.09
2019-02-11T20:59:05.525Z,96211.81
2019-02-11T21:01:34.819Z,96218.23
2019-02-11T21:04:04.083Z,96221.21
2019-02-11T21:06:33.329Z,96221.31
2019-02-11T21:11:52.430Z,96223.40
2019-02-11T21:14:21.990Z,96214.16
2019-02-11T21:16:51.237Z,96228.34
2019-02-11T21:19:20.719Z,96234.69
2019-02-11T21:21:49.956Z,96256.94
2019-02-11T21:24:19.156Z,96300.82
2019-02-11T21:26:48.405Z,96305.28
2019-02-11T21:29:17.605Z,96303.55
2019-02-11T21:31:46.961Z,96318.52
2019-02-11T21:34:16.226Z,96312.06
2019-02-11T21:36:45.410Z,96319.07
2019-02-11T21:39:14.659Z,96308.61
2019-02-11T21:41:43.892Z,96320.22
2019-02-11T21:44:13.150Z,96332.83
2019-02-11T21:46:42.352Z,96316.25
2019-02-11T21:49:11.983Z,96337.75
2019-02-11T21:51:41.162Z,96335.52
2019-02-11T21:54:10.411Z,96350.19
2019-02-11T21:56:39.582Z,96341.30
2019-02-11T21:59:08.801Z,96345.77
2019-02-11T22:01:38.025Z,96349.42
2019-02-11T22:04:07.574Z,96346.81
2019-02-11T22:06:37.289Z,96339.84
2019-02-11T22:09:45.890Z,96327.87
2019-02-11T22:12:15.148Z,96334.31
2019-02-11T22:14:44.344Z,96333.77
2019-02-11T22:17:13.580Z,96334.13
2019-02-11T22:19:42.780Z,96339.73
2019-02-11T22:22:12.028Z,96334.78
2019-02-11T22:24:41.503Z,96338.10
2019-02-11T22:27:10.750Z,96341.48
2019-02-11T22:32:50.927Z,96335.59
2019-02-11T22:35:20.101Z,96331.73
2019-02-11T22:37:49.851Z,96331.87
2019-02-11T22:40:19.082Z,96334.23
2019-02-11T22:42:48.374Z,96332.71
2019-02-11T22:45:19.297Z,96331.08
2019-02-11T22:47:48.642Z,96333.64
2019-02-11T22:50:17.831Z,96330.20
2019-02-11T22:52:47.133Z,96335.16
2019-02-11T22:55:16.382Z,96328.42
2019-02-11T22:57:45.574Z,96331.12
2019-02-11T23:03:29.796Z,96331.03
2019-02-11T23:05:58.984Z,96335.02
2019-02-11T23:08:28.454Z,96335.59
2019-02-11T23:10:57.691Z,96344.91
2019-02-11T23:13:26.884Z,96343.98
2019-02-11T23:15:56.491Z,96348.61
2019-02-11T23:18:25.690Z,96357.95
2019-02-11T23:20:55.299Z,96365.41
2019-02-11T23:23:24.487Z,96358.88
2019-02-11T23:25:53.737Z,96366.27
2019-02-11T23:28:23.304Z,96371.51
2019-02-11T23:30:52.542Z,96377.30
2019-02-11T23:33:22.196Z,96378.20
2019-02-11T23:38:27.599Z,96374.73
2019-02-11T23:40:57.160Z,96380.91
2019-02-11T23:43:26.353Z,96379.91
2019-02-11T23:45:55.983Z,96381.91
2019-02-11T23:48:25.174Z,96375.87
2019-02-11T23:51:00.252Z,96373.23
2019-02-11T23:53:25.749Z,96373.95
2019-02-11T23:55:54.940Z,96370.38
2019-02-11T23:58:24.193Z,96380.97
